sensor_id;sensor_type;location;lat;lon;timestamp;P1;durP1;ratioP1;P2;durP2;ratioP2
64375;SDS011;50700;55.416;12.952;2023-01-26T00:00:46;29.05;;;10.50;;
64375;SDS011;50700;55.416;12.952;2023-01-26T00:03:13;27.52;;;9.73;;
64375;SDS011;50700;55.416;12.952;2023-01-26T00:05:39;35.13;;;10.80;;
64375;SDS011;50700;55.416;12.952;2023-01-26T00:08:06;31.38;;;10.98;;
64375;SDS011;50700;55.416;12.952;2023-01-26T00:10:35;29.90;;;10.10;;
64375;SDS011;50700;55.416;12.952;2023-01-26T00:13:02;34.17;;;11.68;;
64375;SDS011;50700;55.416;12.952;2023-01-26T00:15:30;32.35;;;12.70;;
64375;SDS011;50700;55.416;12.952;2023-01-26T00:17:57;31.85;;;11.55;;
64375;SDS011;50700;55.416;12.952;2023-01-26T00:20:24;41.10;;;13.23;;
64375;SDS011;50700;55.416;12.952;2023-01-26T00:22:50;35.20;;;11.30;;
64375;SDS011;50700;55.416;12.952;2023-01-26T00:25:16;38.35;;;12.68;;
64375;SDS011;50700;55.416;12.952;2023-01-26T00:27:42;37.10;;;11.82;;
64375;SDS011;50700;55.416;12.952;2023-01-26T00:30:09;33.50;;;11.90;;
64375;SDS011;50700;55.416;12.952;2023-01-26T00:32:35;33.25;;;12.07;;
64375;SDS011;50700;55.416;12.952;2023-01-26T00:35:02;31.80;;;10.95;;
64375;SDS011;50700;55.416;12.952;2023-01-26T00:37:28;36.22;;;12.63;;
64375;SDS011;50700;55.416;12.952;2023-01-26T00:39:55;38.28;;;12.43;;
64375;SDS011;50700;55.416;12.952;2023-01-26T00:42:21;37.38;;;12.00;;
64375;SDS011;50700;55.416;12.952;2023-01-26T00:44:48;35.42;;;12.18;;
64375;SDS011;50700;55.416;12.952;2023-01-26T00:47:15;34.10;;;10.90;;
64375;SDS011;50700;55.416;12.952;2023-01-26T00:49:41;39.45;;;11.95;;
64375;SDS011;50700;55.416;12.952;2023-01-26T00:52:08;36.95;;;12.27;;
64375;SDS011;50700;55.416;12.952;2023-01-26T00:54:34;32.35;;;12.43;;
64375;SDS011;50700;55.416;12.952;2023-01-26T00:57:00;37.65;;;12.00;;
64375;SDS011;50700;55.416;12.952;2023-01-26T00:59:26;33.00;;;12.30;;
64375;SDS011;50700;55.416;12.952;2023-01-26T01:01:56;35.65;;;12.90;;
64375;SDS011;50700;55.416;12.952;2023-01-26T01:04:23;30.35;;;11.02;;
64375;SDS011;50700;55.416;12.952;2023-01-26T01:06:50;33.83;;;10.90;;
64375;SDS011;50700;55.416;12.952;2023-01-26T01:09:16;30.70;;;9.60;;
64375;SDS011;50700;55.416;12.952;2023-01-26T01:11:43;26.50;;;10.05;;
64375;SDS011;50700;55.416;12.952;2023-01-26T01:14:10;32.35;;;11.60;;
64375;SDS011;50700;55.416;12.952;2023-01-26T01:16:36;35.55;;;10.13;;
64375;SDS011;50700;55.416;12.952;2023-01-26T01:19:03;36.58;;;11.40;;
64375;SDS011;50700;55.416;12.952;2023-01-26T01:21:29;31.23;;;12.18;;
64375;SDS011;50700;55.416;12.952;2023-01-26T01:23:57;33.83;;;11.95;;
64375;SDS011;50700;55.416;12.952;2023-01-26T01:26:23;31.17;;;10.90;;
64375;SDS011;50700;55.416;12.952;2023-01-26T01:28:51;40.83;;;11.57;;
64375;SDS011;50700;55.416;12.952;2023-01-26T01:31:18;36.22;;;11.75;;
64375;SDS011;50700;55.416;12.952;2023-01-26T01:33:45;31.98;;;10.90;;
64375;SDS011;50700;55.416;12.952;2023-01-26T01:36:12;28.92;;;9.85;;
64375;SDS011;50700;55.416;12.952;2023-01-26T01:38:39;27.98;;;9.77;;
64375;SDS011;50700;55.416;12.952;2023-01-26T01:41:06;27.80;;;9.02;;
64375;SDS011;50700;55.416;12.952;2023-01-26T01:43:32;27.40;;;9.25;;
64375;SDS011;50700;55.416;12.952;2023-01-26T01:46:23;35.13;;;12.32;;
64375;SDS011;50700;55.416;12.952;2023-01-26T01:51:16;26.85;;;11.00;;
64375;SDS011;50700;55.416;12.952;2023-01-26T01:53:45;33.88;;;10.93;;
64375;SDS011;50700;55.416;12.952;2023-01-26T01:56:14;29.23;;;9.85;;
64375;SDS011;50700;55.416;12.952;2023-01-26T01:58:45;27.42;;;10.13;;
64375;SDS011;50700;55.416;12.952;2023-01-26T02:01:13;34.80;;;10.73;;
64375;SDS011;50700;55.416;12.952;2023-01-26T02:03:39;33.60;;;10.23;;
64375;SDS011;50700;55.416;12.952;2023-01-26T02:08:34;28.95;;;11.02;;
64375;SDS011;50700;55.416;12.952;2023-01-26T02:11:03;29.38;;;10.55;;
64375;SDS011;50700;55.416;12.952;2023-01-26T02:13:30;38.53;;;11.10;;
64375;SDS011;50700;55.416;12.952;2023-01-26T02:15:58;29.58;;;10.18;;
64375;SDS011;50700;55.416;12.952;2023-01-26T02:18:24;35.17;;;11.63;;
64375;SDS011;50700;55.416;12.952;2023-01-26T02:20:56;29.30;;;10.68;;
64375;SDS011;50700;55.416;12.952;2023-01-26T02:28:22;27.23;;;9.93;;
64375;SDS011;50700;55.416;12.952;2023-01-26T02:30:49;31.52;;;11.18;;
64375;SDS011;50700;55.416;12.952;2023-01-26T02:33:20;24.75;;;8.95;;
64375;SDS011;50700;55.416;12.952;2023-01-26T02:35:47;29.00;;;9.43;;
64375;SDS011;50700;55.416;12.952;2023-01-26T02:38:13;23.20;;;8.68;;
64375;SDS011;50700;55.416;12.952;2023-01-26T02:40:57;24.85;;;9.35;;
64375;SDS011;50700;55.416;12.952;2023-01-26T02:43:24;22.52;;;8.13;;
64375;SDS011;50700;55.416;12.952;2023-01-26T02:45:51;26.83;;;9.60;;
64375;SDS011;50700;55.416;12.952;2023-01-26T02:48:18;24.60;;;8.50;;
64375;SDS011;50700;55.416;12.952;2023-01-26T02:51:04;30.33;;;8.98;;
64375;SDS011;50700;55.416;12.952;2023-01-26T02:53:30;25.90;;;8.43;;
64375;SDS011;50700;55.416;12.952;2023-01-26T02:55:57;26.17;;;8.48;;
64375;SDS011;50700;55.416;12.952;2023-01-26T02:58:23;26.38;;;8.43;;
64375;SDS011;50700;55.416;12.952;2023-01-26T03:00:49;21.17;;;7.40;;
64375;SDS011;50700;55.416;12.952;2023-01-26T03:03:17;23.10;;;8.32;;
64375;SDS011;50700;55.416;12.952;2023-01-26T03:05:45;29.10;;;9.15;;
64375;SDS011;50700;55.416;12.952;2023-01-26T03:08:11;25.63;;;8.38;;
64375;SDS011;50700;55.416;12.952;2023-01-26T03:10:37;21.48;;;7.45;;
64375;SDS011;50700;55.416;12.952;2023-01-26T03:13:04;20.30;;;8.07;;
64375;SDS011;50700;55.416;12.952;2023-01-26T03:15:30;22.05;;;7.68;;
64375;SDS011;50700;55.416;12.952;2023-01-26T03:18:20;18.70;;;6.22;;
64375;SDS011;50700;55.416;12.952;2023-01-26T03:21:12;19.55;;;6.68;;
64375;SDS011;50700;55.416;12.952;2023-01-26T03:23:57;25.75;;;8.23;;
64375;SDS011;50700;55.416;12.952;2023-01-26T03:26:42;20.63;;;6.00;;
64375;SDS011;50700;55.416;12.952;2023-01-26T03:29:27;16.92;;;6.32;;
64375;SDS011;50700;55.416;12.952;2023-01-26T03:31:54;15.63;;;6.75;;
64375;SDS011;50700;55.416;12.952;2023-01-26T03:34:21;14.35;;;5.13;;
64375;SDS011;50700;55.416;12.952;2023-01-26T03:36:47;17.20;;;6.22;;
64375;SDS011;50700;55.416;12.952;2023-01-26T03:39:14;23.15;;;7.22;;
64375;SDS011;50700;55.416;12.952;2023-01-26T03:41:59;18.42;;;7.70;;
64375;SDS011;50700;55.416;12.952;2023-01-26T03:44:44;21.30;;;7.65;;
64375;SDS011;50700;55.416;12.952;2023-01-26T03:47:32;21.95;;;7.90;;
64375;SDS011;50700;55.416;12.952;2023-01-26T03:50:17;17.98;;;6.53;;
64375;SDS011;50700;55.416;12.952;2023-01-26T03:53:02;18.48;;;5.72;;
64375;SDS011;50700;55.416;12.952;2023-01-26T03:55:50;16.58;;;5.80;;
64375;SDS011;50700;55.416;12.952;2023-01-26T03:58:35;17.40;;;5.90;;
64375;SDS011;50700;55.416;12.952;2023-01-26T04:01:01;16.95;;;5.90;;
64375;SDS011;50700;55.416;12.952;2023-01-26T04:03:28;14.88;;;5.50;;
64375;SDS011;50700;55.416;12.952;2023-01-26T04:06:13;17.05;;;6.43;;
64375;SDS011;50700;55.416;12.952;2023-01-26T04:08:57;14.23;;;5.53;;
64375;SDS011;50700;55.416;12.952;2023-01-26T04:11:24;14.55;;;5.25;;
64375;SDS011;50700;55.416;12.952;2023-01-26T04:13:50;16.95;;;6.55;;
64375;SDS011;50700;55.416;12.952;2023-01-26T04:16:35;16.02;;;5.57;;
64375;SDS011;50700;55.416;12.952;2023-01-26T04:19:19;12.60;;;4.65;;
64375;SDS011;50700;55.416;12.952;2023-01-26T04:22:04;12.93;;;4.70;;
64375;SDS011;50700;55.416;12.952;2023-01-26T04:24:31;10.93;;;5.10;;
64375;SDS011;50700;55.416;12.952;2023-01-26T04:26:57;11.48;;;4.57;;
64375;SDS011;50700;55.416;12.952;2023-01-26T04:29:23;15.57;;;5.53;;
64375;SDS011;50700;55.416;12.952;2023-01-26T04:31:49;12.82;;;4.57;;
64375;SDS011;50700;55.416;12.952;2023-01-26T04:34:15;14.02;;;4.63;;
64375;SDS011;50700;55.416;12.952;2023-01-26T04:36:42;11.63;;;4.85;;
64375;SDS011;50700;55.416;12.952;2023-01-26T04:39:08;14.80;;;6.50;;
64375;SDS011;50700;55.416;12.952;2023-01-26T04:41:34;13.10;;;5.28;;
64375;SDS011;50700;55.416;12.952;2023-01-26T04:44:01;12.98;;;5.30;;
64375;SDS011;50700;55.416;12.952;2023-01-26T04:46:27;11.32;;;5.72;;
64375;SDS011;50700;55.416;12.952;2023-01-26T04:48:53;12.05;;;4.80;;
64375;SDS011;50700;55.416;12.952;2023-01-26T04:51:20;12.27;;;5.10;;
64375;SDS011;50700;55.416;12.952;2023-01-26T04:53:47;12.38;;;4.82;;
64375;SDS011;50700;55.416;12.952;2023-01-26T04:56:16;13.95;;;5.50;;
64375;SDS011;50700;55.416;12.952;2023-01-26T04:58:44;13.35;;;5.10;;
64375;SDS011;50700;55.416;12.952;2023-01-26T05:01:10;11.45;;;4.68;;
64375;SDS011;50700;55.416;12.952;2023-01-26T05:03:36;11.70;;;4.70;;
64375;SDS011;50700;55.416;12.952;2023-01-26T05:06:02;11.57;;;4.25;;
64375;SDS011;50700;55.416;12.952;2023-01-26T05:08:29;9.40;;;5.00;;
64375;SDS011;50700;55.416;12.952;2023-01-26T05:10:55;11.77;;;5.30;;
64375;SDS011;50700;55.416;12.952;2023-01-26T05:13:21;11.48;;;4.75;;
64375;SDS011;50700;55.416;12.952;2023-01-26T05:15:47;11.35;;;5.00;;
64375;SDS011;50700;55.416;12.952;2023-01-26T05:18:13;11.70;;;5.07;;
64375;SDS011;50700;55.416;12.952;2023-01-26T05:20:40;12.23;;;4.93;;
64375;SDS011;50700;55.416;12.952;2023-01-26T05:23:06;8.10;;;3.65;;
64375;SDS011;50700;55.416;12.952;2023-01-26T05:25:32;9.00;;;3.88;;
64375;SDS011;50700;55.416;12.952;2023-01-26T05:27:58;6.40;;;3.33;;
64375;SDS011;50700;55.416;12.952;2023-01-26T05:30:25;12.43;;;5.13;;
64375;SDS011;50700;55.416;12.952;2023-01-26T05:32:51;8.82;;;4.32;;
64375;SDS011;50700;55.416;12.952;2023-01-26T05:35:17;8.73;;;4.10;;
64375;SDS011;50700;55.416;12.952;2023-01-26T05:37:44;9.65;;;4.43;;
64375;SDS011;50700;55.416;12.952;2023-01-26T05:40:10;9.60;;;3.40;;
64375;SDS011;50700;55.416;12.952;2023-01-26T05:42:37;7.93;;;3.78;;
64375;SDS011;50700;55.416;12.952;2023-01-26T05:45:03;7.70;;;3.45;;
64375;SDS011;50700;55.416;12.952;2023-01-26T05:47:30;10.32;;;3.83;;
64375;SDS011;50700;55.416;12.952;2023-01-26T05:49:56;10.70;;;3.78;;
64375;SDS011;50700;55.416;12.952;2023-01-26T05:52:22;7.55;;;3.42;;
64375;SDS011;50700;55.416;12.952;2023-01-26T05:54:48;9.32;;;3.13;;
64375;SDS011;50700;55.416;12.952;2023-01-26T05:57:14;8.05;;;3.03;;
64375;SDS011;50700;55.416;12.952;2023-01-26T05:59:41;5.93;;;2.90;;
64375;SDS011;50700;55.416;12.952;2023-01-26T06:02:08;5.38;;;2.28;;
64375;SDS011;50700;55.416;12.952;2023-01-26T06:04:36;7.07;;;2.20;;
64375;SDS011;50700;55.416;12.952;2023-01-26T06:07:03;5.68;;;2.63;;
64375;SDS011;50700;55.416;12.952;2023-01-26T06:09:29;6.82;;;2.58;;
64375;SDS011;50700;55.416;12.952;2023-01-26T06:11:55;5.75;;;2.72;;
64375;SDS011;50700;55.416;12.952;2023-01-26T06:14:22;4.80;;;2.28;;
64375;SDS011;50700;55.416;12.952;2023-01-26T06:16:48;5.90;;;2.78;;
64375;SDS011;50700;55.416;12.952;2023-01-26T06:19:14;5.15;;;2.40;;
64375;SDS011;50700;55.416;12.952;2023-01-26T06:21:40;5.68;;;2.35;;
64375;SDS011;50700;55.416;12.952;2023-01-26T06:24:06;3.72;;;2.10;;
64375;SDS011;50700;55.416;12.952;2023-01-26T06:26:33;3.72;;;2.60;;
64375;SDS011;50700;55.416;12.952;2023-01-26T06:28:59;3.17;;;1.88;;
64375;SDS011;50700;55.416;12.952;2023-01-26T06:31:25;6.03;;;3.00;;
64375;SDS011;50700;55.416;12.952;2023-01-26T06:33:53;3.50;;;2.10;;
64375;SDS011;50700;55.416;12.952;2023-01-26T06:36:20;4.13;;;2.03;;
64375;SDS011;50700;55.416;12.952;2023-01-26T06:38:47;6.88;;;2.17;;
64375;SDS011;50700;55.416;12.952;2023-01-26T06:41:13;3.40;;;2.05;;
64375;SDS011;50700;55.416;12.952;2023-01-26T06:43:39;5.72;;;2.15;;
64375;SDS011;50700;55.416;12.952;2023-01-26T06:46:09;4.40;;;1.75;;
64375;SDS011;50700;55.416;12.952;2023-01-26T06:48:35;3.90;;;2.28;;
64375;SDS011;50700;55.416;12.952;2023-01-26T06:53:48;3.20;;;2.30;;
64375;SDS011;50700;55.416;12.952;2023-01-26T06:56:16;5.03;;;2.10;;
64375;SDS011;50700;55.416;12.952;2023-01-26T06:58:43;3.17;;;2.22;;
64375;SDS011;50700;55.416;12.952;2023-01-26T07:01:21;4.43;;;2.03;;
64375;SDS011;50700;55.416;12.952;2023-01-26T07:03:48;5.75;;;2.55;;
64375;SDS011;50700;55.416;12.952;2023-01-26T07:06:15;4.40;;;2.28;;
64375;SDS011;50700;55.416;12.952;2023-01-26T07:08:41;4.47;;;2.20;;
64375;SDS011;50700;55.416;12.952;2023-01-26T07:11:07;11.85;;;2.75;;
64375;SDS011;50700;55.416;12.952;2023-01-26T07:13:34;5.50;;;2.72;;
64375;SDS011;50700;55.416;12.952;2023-01-26T07:16:04;6.00;;;3.50;;
64375;SDS011;50700;55.416;12.952;2023-01-26T07:18:31;5.38;;;3.08;;
64375;SDS011;50700;55.416;12.952;2023-01-26T07:21:00;6.53;;;2.85;;
64375;SDS011;50700;55.416;12.952;2023-01-26T07:23:26;5.05;;;2.90;;
64375;SDS011;50700;55.416;12.952;2023-01-26T07:25:53;6.30;;;3.10;;
64375;SDS011;50700;55.416;12.952;2023-01-26T07:28:19;5.05;;;2.80;;
64375;SDS011;50700;55.416;12.952;2023-01-26T07:30:46;5.00;;;3.20;;
64375;SDS011;50700;55.416;12.952;2023-01-26T07:33:13;4.47;;;2.55;;
64375;SDS011;50700;55.416;12.952;2023-01-26T07:35:39;6.35;;;3.20;;
64375;SDS011;50700;55.416;12.952;2023-01-26T07:38:06;7.60;;;3.10;;
64375;SDS011;50700;55.416;12.952;2023-01-26T07:40:32;7.43;;;4.18;;
64375;SDS011;50700;55.416;12.952;2023-01-26T07:42:58;5.75;;;2.97;;
64375;SDS011;50700;55.416;12.952;2023-01-26T07:45:25;5.85;;;3.60;;
64375;SDS011;50700;55.416;12.952;2023-01-26T07:47:54;8.43;;;4.15;;
64375;SDS011;50700;55.416;12.952;2023-01-26T07:50:21;9.25;;;4.03;;
64375;SDS011;50700;55.416;12.952;2023-01-26T07:52:47;8.45;;;3.60;;
64375;SDS011;50700;55.416;12.952;2023-01-26T07:55:17;9.60;;;4.32;;
64375;SDS011;50700;55.416;12.952;2023-01-26T07:57:46;7.72;;;3.92;;
64375;SDS011;50700;55.416;12.952;2023-01-26T08:00:13;12.45;;;4.85;;
64375;SDS011;50700;55.416;12.952;2023-01-26T08:02:39;8.95;;;4.35;;
64375;SDS011;50700;55.416;12.952;2023-01-26T08:05:06;9.48;;;4.57;;
64375;SDS011;50700;55.416;12.952;2023-01-26T08:07:32;16.10;;;5.28;;
64375;SDS011;50700;55.416;12.952;2023-01-26T08:09:59;9.45;;;4.43;;
64375;SDS011;50700;55.416;12.952;2023-01-26T08:12:25;9.65;;;4.90;;
64375;SDS011;50700;55.416;12.952;2023-01-26T08:14:51;9.43;;;4.80;;
64375;SDS011;50700;55.416;12.952;2023-01-26T08:17:17;9.25;;;4.60;;
64375;SDS011;50700;55.416;12.952;2023-01-26T08:19:44;11.38;;;5.15;;
64375;SDS011;50700;55.416;12.952;2023-01-26T08:22:10;10.23;;;5.15;;
64375;SDS011;50700;55.416;12.952;2023-01-26T08:24:37;17.27;;;5.88;;
64375;SDS011;50700;55.416;12.952;2023-01-26T08:27:03;11.77;;;5.47;;
64375;SDS011;50700;55.416;12.952;2023-01-26T08:29:29;14.23;;;5.88;;
64375;SDS011;50700;55.416;12.952;2023-01-26T08:31:56;12.85;;;5.82;;
64375;SDS011;50700;55.416;12.952;2023-01-26T08:34:22;12.48;;;5.18;;
64375;SDS011;50700;55.416;12.952;2023-01-26T08:36:50;15.32;;;5.30;;
64375;SDS011;50700;55.416;12.952;2023-01-26T08:39:16;11.60;;;5.82;;
64375;SDS011;50700;55.416;12.952;2023-01-26T08:41:44;12.60;;;5.22;;
64375;SDS011;50700;55.416;12.952;2023-01-26T08:44:10;15.15;;;6.00;;
64375;SDS011;50700;55.416;12.952;2023-01-26T08:46:36;14.60;;;5.72;;
64375;SDS011;50700;55.416;12.952;2023-01-26T08:49:02;16.10;;;6.18;;
64375;SDS011;50700;55.416;12.952;2023-01-26T08:51:29;18.92;;;5.97;;
64375;SDS011;50700;55.416;12.952;2023-01-26T08:53:55;15.68;;;6.32;;
64375;SDS011;50700;55.416;12.952;2023-01-26T08:56:21;21.20;;;6.30;;
64375;SDS011;50700;55.416;12.952;2023-01-26T08:58:48;21.45;;;6.57;;
64375;SDS011;50700;55.416;12.952;2023-01-26T09:01:14;18.33;;;5.65;;
64375;SDS011;50700;55.416;12.952;2023-01-26T09:03:41;20.15;;;6.97;;
64375;SDS011;50700;55.416;12.952;2023-01-26T09:06:09;18.77;;;6.10;;
64375;SDS011;50700;55.416;12.952;2023-01-26T09:08:36;17.63;;;5.57;;
64375;SDS011;50700;55.416;12.952;2023-01-26T09:11:05;20.02;;;7.63;;
64375;SDS011;50700;55.416;12.952;2023-01-26T09:13:32;21.55;;;7.55;;
64375;SDS011;50700;55.416;12.952;2023-01-26T09:16:01;25.40;;;7.32;;
64375;SDS011;50700;55.416;12.952;2023-01-26T09:18:28;22.80;;;6.88;;
64375;SDS011;50700;55.416;12.952;2023-01-26T09:20:54;24.67;;;6.80;;
64375;SDS011;50700;55.416;12.952;2023-01-26T09:23:20;27.13;;;7.80;;
64375;SDS011;50700;55.416;12.952;2023-01-26T09:25:51;23.52;;;7.65;;
64375;SDS011;50700;55.416;12.952;2023-01-26T09:28:17;25.05;;;7.55;;
64375;SDS011;50700;55.416;12.952;2023-01-26T09:30:43;27.45;;;6.65;;
64375;SDS011;50700;55.416;12.952;2023-01-26T09:33:10;23.27;;;6.55;;
64375;SDS011;50700;55.416;12.952;2023-01-26T09:35:36;23.88;;;7.28;;
64375;SDS011;50700;55.416;12.952;2023-01-26T09:38:02;22.20;;;7.25;;
64375;SDS011;50700;55.416;12.952;2023-01-26T09:40:36;22.88;;;8.23;;
64375;SDS011;50700;55.416;12.952;2023-01-26T09:45:38;29.13;;;7.38;;
64375;SDS011;50700;55.416;12.952;2023-01-26T09:48:29;35.28;;;9.50;;
64375;SDS011;50700;55.416;12.952;2023-01-26T09:51:03;34.17;;;9.57;;
64375;SDS011;50700;55.416;12.952;2023-01-26T09:53:53;31.15;;;7.70;;
64375;SDS011;50700;55.416;12.952;2023-01-26T09:56:21;29.67;;;8.15;;
64375;SDS011;50700;55.416;12.952;2023-01-26T09:58:50;35.88;;;8.85;;
64375;SDS011;50700;55.416;12.952;2023-01-26T10:01:23;32.47;;;8.30;;
64375;SDS011;50700;55.416;12.952;2023-01-26T10:03:58;23.90;;;8.10;;
64375;SDS011;50700;55.416;12.952;2023-01-26T10:06:29;35.53;;;9.27;;
64375;SDS011;50700;55.416;12.952;2023-01-26T10:09:00;34.83;;;9.27;;
64375;SDS011;50700;55.416;12.952;2023-01-26T10:11:35;34.67;;;9.93;;
64375;SDS011;50700;55.416;12.952;2023-01-26T10:14:05;31.20;;;8.77;;
64375;SDS011;50700;55.416;12.952;2023-01-26T10:16:33;24.63;;;7.60;;
64375;SDS011;50700;55.416;12.952;2023-01-26T10:19:09;37.03;;;8.95;;
64375;SDS011;50700;55.416;12.952;2023-01-26T10:21:38;30.08;;;8.43;;
64375;SDS011;50700;55.416;12.952;2023-01-26T10:24:05;35.20;;;9.07;;
64375;SDS011;50700;55.416;12.952;2023-01-26T10:26:34;35.65;;;7.97;;
64375;SDS011;50700;55.416;12.952;2023-01-26T10:29:01;29.13;;;9.10;;
64375;SDS011;50700;55.416;12.952;2023-01-26T10:31:29;37.08;;;8.52;;
64375;SDS011;50700;55.416;12.952;2023-01-26T10:36:29;26.95;;;8.45;;
64375;SDS011;50700;55.416;12.952;2023-01-26T10:39:05;31.60;;;8.20;;
64375;SDS011;50700;55.416;12.952;2023-01-26T10:41:32;30.60;;;8.57;;
64375;SDS011;50700;55.416;12.952;2023-01-26T10:46:42;23.75;;;7.88;;
64375;SDS011;50700;55.416;12.952;2023-01-26T10:49:13;21.20;;;7.60;;
64375;SDS011;50700;55.416;12.952;2023-01-26T10:51:44;26.38;;;7.75;;
64375;SDS011;50700;55.416;12.952;2023-01-26T10:54:18;28.35;;;8.25;;
64375;SDS011;50700;55.416;12.952;2023-01-26T10:59:25;25.42;;;8.85;;
64375;SDS011;50700;55.416;12.952;2023-01-26T11:01:53;27.75;;;7.80;;
64375;SDS011;50700;55.416;12.952;2023-01-26T11:04:20;23.15;;;7.43;;
64375;SDS011;50700;55.416;12.952;2023-01-26T11:06:47;32.70;;;9.15;;
64375;SDS011;50700;55.416;12.952;2023-01-26T11:11:40;26.33;;;8.23;;
64375;SDS011;50700;55.416;12.952;2023-01-26T11:14:16;28.05;;;8.15;;
64375;SDS011;50700;55.416;12.952;2023-01-26T11:22:04;27.90;;;9.32;;
64375;SDS011;50700;55.416;12.952;2023-01-26T11:24:47;34.08;;;10.70;;
64375;SDS011;50700;55.416;12.952;2023-01-26T11:35:14;26.88;;;8.93;;
64375;SDS011;50700;55.416;12.952;2023-01-26T11:43:08;44.33;;;9.93;;
64375;SDS011;50700;55.416;12.952;2023-01-26T11:58:45;24.95;;;7.22;;
64375;SDS011;50700;55.416;12.952;2023-01-26T12:01:15;29.95;;;8.57;;
64375;SDS011;50700;55.416;12.952;2023-01-26T12:03:46;38.28;;;8.40;;
64375;SDS011;50700;55.416;12.952;2023-01-26T12:08:47;44.40;;;8.68;;
64375;SDS011;50700;55.416;12.952;2023-01-26T12:11:18;35.20;;;9.05;;
64375;SDS011;50700;55.416;12.952;2023-01-26T12:16:24;30.73;;;8.55;;
64375;SDS011;50700;55.416;12.952;2023-01-26T12:18:56;31.48;;;8.75;;
64375;SDS011;50700;55.416;12.952;2023-01-26T12:21:24;33.65;;;7.47;;
64375;SDS011;50700;55.416;12.952;2023-01-26T12:24:00;29.77;;;7.60;;
64375;SDS011;50700;55.416;12.952;2023-01-26T12:26:28;37.55;;;9.18;;
64375;SDS011;50700;55.416;12.952;2023-01-26T12:29:17;41.25;;;8.75;;
64375;SDS011;50700;55.416;12.952;2023-01-26T12:32:05;33.42;;;8.32;;
64375;SDS011;50700;55.416;12.952;2023-01-26T12:34:33;24.55;;;7.45;;
64375;SDS011;50700;55.416;12.952;2023-01-26T12:39:40;19.50;;;5.97;;
64375;SDS011;50700;55.416;12.952;2023-01-26T12:44:56;21.45;;;6.53;;
64375;SDS011;50700;55.416;12.952;2023-01-26T12:47:39;23.63;;;6.07;;
64375;SDS011;50700;55.416;12.952;2023-01-26T12:52:42;18.92;;;4.60;;
64375;SDS011;50700;55.416;12.952;2023-01-26T12:55:14;15.90;;;4.40;;
64375;SDS011;50700;55.416;12.952;2023-01-26T12:57:43;20.38;;;4.68;;
64375;SDS011;50700;55.416;12.952;2023-01-26T13:00:22;13.48;;;4.40;;
64375;SDS011;50700;55.416;12.952;2023-01-26T13:02:51;15.80;;;5.63;;
64375;SDS011;50700;55.416;12.952;2023-01-26T13:05:23;12.13;;;4.57;;
64375;SDS011;50700;55.416;12.952;2023-01-26T13:07:50;18.70;;;4.53;;
64375;SDS011;50700;55.416;12.952;2023-01-26T13:12:50;15.82;;;4.47;;
64375;SDS011;50700;55.416;12.952;2023-01-26T13:15:18;15.38;;;4.80;;
64375;SDS011;50700;55.416;12.952;2023-01-26T13:20:25;12.05;;;4.57;;
64375;SDS011;50700;55.416;12.952;2023-01-26T13:22:51;17.00;;;5.03;;
64375;SDS011;50700;55.416;12.952;2023-01-26T13:25:24;11.30;;;4.55;;
64375;SDS011;50700;55.416;12.952;2023-01-26T13:27:55;18.10;;;4.65;;
64375;SDS011;50700;55.416;12.952;2023-01-26T13:35:35;15.50;;;5.22;;
64375;SDS011;50700;55.416;12.952;2023-01-26T13:38:08;17.15;;;5.55;;
64375;SDS011;50700;55.416;12.952;2023-01-26T13:40:37;15.05;;;4.75;;
64375;SDS011;50700;55.416;12.952;2023-01-26T13:43:16;16.50;;;4.97;;
64375;SDS011;50700;55.416;12.952;2023-01-26T13:51:05;15.13;;;6.35;;
64375;SDS011;50700;55.416;12.952;2023-01-26T13:55:59;11.52;;;4.55;;
64375;SDS011;50700;55.416;12.952;2023-01-26T13:58:25;11.73;;;4.47;;
64375;SDS011;50700;55.416;12.952;2023-01-26T14:00:59;11.25;;;4.45;;
64375;SDS011;50700;55.416;12.952;2023-01-26T14:03:26;5.88;;;3.50;;
64375;SDS011;50700;55.416;12.952;2023-01-26T14:06:03;5.43;;;2.78;;
64375;SDS011;50700;55.416;12.952;2023-01-26T14:08:33;8.70;;;3.15;;
64375;SDS011;50700;55.416;12.952;2023-01-26T14:11:00;6.25;;;2.83;;
64375;SDS011;50700;55.416;12.952;2023-01-26T14:13:36;6.78;;;2.78;;
64375;SDS011;50700;55.416;12.952;2023-01-26T14:16:03;7.05;;;2.97;;
64375;SDS011;50700;55.416;12.952;2023-01-26T14:18:31;8.20;;;3.50;;
64375;SDS011;50700;55.416;12.952;2023-01-26T14:21:01;6.93;;;3.25;;
64375;SDS011;50700;55.416;12.952;2023-01-26T14:23:30;5.28;;;2.85;;
64375;SDS011;50700;55.416;12.952;2023-01-26T14:28:34;7.30;;;3.58;;
64375;SDS011;50700;55.416;12.952;2023-01-26T14:33:57;8.15;;;3.70;;
64375;SDS011;50700;55.416;12.952;2023-01-26T14:36:25;5.60;;;2.95;;
64375;SDS011;50700;55.416;12.952;2023-01-26T14:38:52;7.53;;;3.38;;
64375;SDS011;50700;55.416;12.952;2023-01-26T14:43:49;9.25;;;3.42;;
64375;SDS011;50700;55.416;12.952;2023-01-26T14:46:16;8.88;;;3.08;;
64375;SDS011;50700;55.416;12.952;2023-01-26T14:48:48;5.43;;;2.72;;
64375;SDS011;50700;55.416;12.952;2023-01-26T14:51:24;7.22;;;3.65;;
64375;SDS011;50700;55.416;12.952;2023-01-26T14:53:59;6.32;;;3.17;;
64375;SDS011;50700;55.416;12.952;2023-01-26T14:56:31;7.43;;;3.22;;
64375;SDS011;50700;55.416;12.952;2023-01-26T14:58:58;11.93;;;3.83;;
64375;SDS011;50700;55.416;12.952;2023-01-26T15:01:25;10.38;;;3.63;;
64375;SDS011;50700;55.416;12.952;2023-01-26T15:03:58;6.70;;;3.25;;
64375;SDS011;50700;55.416;12.952;2023-01-26T15:06:26;9.32;;;3.05;;
64375;SDS011;50700;55.416;12.952;2023-01-26T15:09:03;6.38;;;3.15;;
64375;SDS011;50700;55.416;12.952;2023-01-26T15:11:34;9.32;;;3.65;;
64375;SDS011;50700;55.416;12.952;2023-01-26T15:16:52;8.13;;;3.83;;
64375;SDS011;50700;55.416;12.952;2023-01-26T15:19:23;5.70;;;3.08;;
64375;SDS011;50700;55.416;12.952;2023-01-26T15:21:49;6.55;;;2.97;;
64375;SDS011;50700;55.416;12.952;2023-01-26T15:24:16;5.97;;;2.63;;
64375;SDS011;50700;55.416;12.952;2023-01-26T15:26:42;3.42;;;2.50;;
64375;SDS011;50700;55.416;12.952;2023-01-26T15:29:17;6.57;;;2.08;;
64375;SDS011;50700;55.416;12.952;2023-01-26T15:31:49;5.55;;;2.13;;
64375;SDS011;50700;55.416;12.952;2023-01-26T15:34:29;5.72;;;2.40;;
64375;SDS011;50700;55.416;12.952;2023-01-26T15:36:56;7.95;;;2.70;;
64375;SDS011;50700;55.416;12.952;2023-01-26T15:39:23;3.47;;;2.17;;
64375;SDS011;50700;55.416;12.952;2023-01-26T15:44:34;9.30;;;2.88;;
64375;SDS011;50700;55.416;12.952;2023-01-26T15:47:01;9.50;;;3.10;;
64375;SDS011;50700;55.416;12.952;2023-01-26T15:49:27;6.93;;;2.50;;
64375;SDS011;50700;55.416;12.952;2023-01-26T15:51:53;7.65;;;3.08;;
64375;SDS011;50700;55.416;12.952;2023-01-26T15:54:20;6.10;;;2.90;;
64375;SDS011;50700;55.416;12.952;2023-01-26T15:56:46;8.45;;;2.97;;
64375;SDS011;50700;55.416;12.952;2023-01-26T15:59:12;10.13;;;3.05;;
64375;SDS011;50700;55.416;12.952;2023-01-26T16:01:38;7.25;;;2.97;;
64375;SDS011;50700;55.416;12.952;2023-01-26T16:04:05;6.55;;;3.00;;
64375;SDS011;50700;55.416;12.952;2023-01-26T16:06:31;5.85;;;2.95;;
64375;SDS011;50700;55.416;12.952;2023-01-26T16:08:58;5.35;;;2.72;;
64375;SDS011;50700;55.416;12.952;2023-01-26T16:11:28;5.75;;;2.70;;
64375;SDS011;50700;55.416;12.952;2023-01-26T16:13:55;6.07;;;2.50;;
64375;SDS011;50700;55.416;12.952;2023-01-26T16:16:22;6.97;;;3.03;;